createdAt,value
2018-02-14T00:00:11.063Z,-2.20
2018-02-14T00:02:38.606Z,-2.34
2018-02-14T00:05:06.145Z,-2.38
2018-02-14T00:07:33.713Z,-2.61
2018-02-14T00:10:01.301Z,-2.60
2018-02-14T00:12:28.848Z,-2.42
2018-02-14T00:14:56.387Z,-2.56
2018-02-14T00:17:23.954Z,-2.59
2018-02-14T00:19:51.514Z,-2.62
2018-02-14T00:22:19.077Z,-2.63
2018-02-14T00:24:46.640Z,-2.57
2018-02-14T00:27:14.181Z,-2.44
2018-02-14T00:29:41.722Z,-2.68
2018-02-14T00:32:09.276Z,-3.02
2018-02-14T00:34:36.856Z,-2.58
2018-02-14T00:37:04.415Z,-2.41
2018-02-14T00:39:31.927Z,-2.56
2018-02-14T00:41:59.510Z,-2.43
2018-02-14T00:44:27.041Z,-2.45
2018-02-14T00:46:54.618Z,-2.53
2018-02-14T00:49:22.186Z,-2.73
2018-02-14T00:51:49.734Z,-2.72
2018-02-14T00:54:17.275Z,-2.72
2018-02-14T00:56:44.798Z,-2.52
2018-02-14T00:59:12.389Z,-2.53
2018-02-14T01:01:39.918Z,-2.57
2018-02-14T01:04:07.446Z,-2.83
2018-02-14T01:06:35.402Z,-2.64
2018-02-14T01:09:03.023Z,-2.64
2018-02-14T01:11:30.544Z,-2.90
2018-02-14T01:13:58.115Z,-2.62
2018-02-14T01:16:25.709Z,-2.75
2018-02-14T01:18:53.258Z,-2.65
2018-02-14T01:21:20.802Z,-2.82
2018-02-14T01:23:48.466Z,-2.48
2018-02-14T01:26:15.986Z,-2.50
2018-02-14T01:28:43.543Z,-2.55
2018-02-14T01:31:11.115Z,-2.70
2018-02-14T01:33:38.657Z,-2.54
2018-02-14T01:36:06.259Z,-2.69
2018-02-14T01:38:33.805Z,-2.79
2018-02-14T01:41:01.861Z,-2.67
2018-02-14T01:43:29.388Z,-2.66
2018-02-14T01:45:56.934Z,-2.72
2018-02-14T01:48:24.489Z,-2.73
2018-02-14T01:50:52.040Z,-2.73
2018-02-14T01:53:20.114Z,-2.79
2018-02-14T01:55:47.630Z,-2.69
2018-02-14T01:58:15.144Z,-2.64
2018-02-14T02:00:42.783Z,-2.63
2018-02-14T02:03:10.307Z,-2.76
2018-02-14T02:05:37.822Z,-2.70
2018-02-14T02:08:05.363Z,-2.85
2018-02-14T02:10:32.879Z,-2.96
2018-02-14T02:13:00.437Z,-3.01
2018-02-14T02:15:27.955Z,-3.21
2018-02-14T02:17:55.583Z,-2.82
2018-02-14T02:20:23.146Z,-3.02
2018-02-14T02:22:50.686Z,-2.92
2018-02-14T02:25:18.255Z,-3.04
2018-02-14T02:27:45.788Z,-2.90
2018-02-14T02:30:13.811Z,-2.95
2018-02-14T02:32:41.350Z,-2.87
2018-02-14T02:35:08.890Z,-2.97
2018-02-14T02:37:36.486Z,-3.17
2018-02-14T02:40:15.858Z,-2.96
2018-02-14T02:42:43.402Z,-3.03
2018-02-14T02:45:11.001Z,-2.87
2018-02-14T02:47:38.566Z,-2.93
2018-02-14T02:50:06.587Z,-2.88
2018-02-14T02:52:34.119Z,-3.00
2018-02-14T02:55:01.650Z,-2.92
2018-02-14T02:57:29.224Z,-2.83
2018-02-14T02:59:56.761Z,-2.79
2018-02-14T03:02:24.355Z,-2.79
2018-02-14T03:04:51.893Z,-2.85
2018-02-14T03:07:19.435Z,-2.81
2018-02-14T03:09:46.995Z,-2.97
2018-02-14T03:12:14.580Z,-2.97
2018-02-14T03:14:42.118Z,-2.95
2018-02-14T03:17:09.631Z,-2.94
2018-02-14T03:19:37.214Z,-2.99
2018-02-14T03:22:04.769Z,-2.88
2018-02-14T03:24:32.310Z,-3.04
2018-02-14T03:26:59.856Z,-3.12
2018-02-14T03:29:27.371Z,-3.38
2018-02-14T03:31:54.929Z,-3.33
2018-02-14T03:34:22.470Z,-3.40
2018-02-14T03:36:50.023Z,-3.25
2018-02-14T03:39:17.543Z,-3.48
2018-02-14T03:41:45.084Z,-3.50
2018-02-14T03:44:12.645Z,-3.38
2018-02-14T03:46:40.214Z,-3.32
2018-02-14T03:49:07.777Z,-3.49
2018-02-14T03:51:35.348Z,-3.53
2018-02-14T03:54:02.916Z,-3.32
2018-02-14T03:56:30.463Z,-3.65
2018-02-14T03:58:58.031Z,-3.55
2018-02-14T04:01:25.622Z,-3.71
2018-02-14T04:03:53.181Z,-3.57
2018-02-14T04:06:20.723Z,-3.80
2018-02-14T04:08:48.306Z,-3.96
2018-02-14T04:11:15.871Z,-3.88
2018-02-14T04:13:43.419Z,-4.00
2018-02-14T04:16:10.939Z,-4.07
2018-02-14T04:18:38.526Z,-4.06
2018-02-14T04:21:06.051Z,-3.76
2018-02-14T04:23:33.593Z,-3.65
2018-02-14T04:26:01.148Z,-3.66
2018-02-14T04:28:28.740Z,-3.78
2018-02-14T04:30:56.284Z,-3.77
2018-02-14T04:33:23.798Z,-3.84
2018-02-14T04:35:51.710Z,-3.57
2018-02-14T04:38:19.245Z,-3.81
2018-02-14T04:40:46.832Z,-3.68
2018-02-14T04:43:14.385Z,-3.98
2018-02-14T04:45:41.929Z,-3.89
2018-02-14T04:48:09.451Z,-3.86
2018-02-14T04:50:37.033Z,-4.07
2018-02-14T04:53:04.587Z,-3.53
2018-02-14T04:55:32.136Z,-3.60
2018-02-14T04:57:59.741Z,-3.90
2018-02-14T05:00:27.276Z,-3.78
2018-02-14T05:02:54.790Z,-3.92
2018-02-14T05:05:22.368Z,-4.14
2018-02-14T05:07:49.977Z,-3.87
2018-02-14T05:10:17.513Z,-3.96
2018-02-14T05:12:45.060Z,-3.88
2018-02-14T05:15:12.625Z,-3.92
2018-02-14T05:17:40.166Z,-3.84
2018-02-14T05:20:07.713Z,-3.69
2018-02-14T05:22:35.273Z,-3.55
2018-02-14T05:25:02.833Z,-3.52
2018-02-14T05:27:30.354Z,-3.51
2018-02-14T05:29:57.934Z,-3.43
2018-02-14T05:32:25.462Z,-3.38
2018-02-14T05:34:52.977Z,-3.41
2018-02-14T05:37:20.533Z,-3.47
2018-02-14T05:39:48.060Z,-3.65
2018-02-14T05:42:15.604Z,-3.43
2018-02-14T05:44:43.157Z,-3.75
2018-02-14T05:47:10.729Z,-3.57
2018-02-14T05:49:38.266Z,-3.68
2018-02-14T05:52:05.828Z,-3.81
2018-02-14T05:54:33.399Z,-3.63
2018-02-14T05:57:00.919Z,-3.88
2018-02-14T05:59:28.434Z,-3.72
2018-02-14T06:01:57.185Z,-3.78
2018-02-14T06:04:24.711Z,-3.79
2018-02-14T06:06:52.242Z,-3.79
2018-02-14T06:09:19.820Z,-3.70
2018-02-14T06:11:47.358Z,-3.68
2018-02-14T06:14:14.915Z,-3.63
2018-02-14T06:16:42.465Z,-3.75
2018-02-14T06:19:10.003Z,-3.80
2018-02-14T06:21:37.528Z,-4.03
2018-02-14T06:24:05.121Z,-3.84
2018-02-14T06:26:32.658Z,-3.87
2018-02-14T06:29:00.194Z,-3.93
2018-02-14T06:31:27.758Z,-3.84
2018-02-14T06:33:55.308Z,-4.06
2018-02-14T06:36:22.869Z,-3.94
2018-02-14T06:38:50.437Z,-4.01
2018-02-14T06:41:17.977Z,-3.94
2018-02-14T06:43:45.519Z,-3.91
2018-02-14T06:46:13.089Z,-4.07
2018-02-14T06:48:40.643Z,-3.97
2018-02-14T06:51:08.568Z,-4.09
2018-02-14T06:53:36.727Z,-4.11
2018-02-14T06:56:04.264Z,-3.88
2018-02-14T06:58:31.834Z,-3.81
2018-02-14T07:00:59.369Z,-3.77
2018-02-14T07:03:26.907Z,-3.84
2018-02-14T07:05:54.461Z,-3.76
2018-02-14T07:08:21.986Z,-3.57
2018-02-14T07:10:49.574Z,-3.54
2018-02-14T07:13:17.101Z,-3.60
2018-02-14T07:15:44.663Z,-3.44
2018-02-14T07:18:12.194Z,-3.43
2018-02-14T07:20:39.776Z,-3.46
2018-02-14T07:23:07.322Z,-3.45
2018-02-14T07:25:34.858Z,-3.39
2018-02-14T07:28:02.424Z,-3.43
2018-02-14T07:30:29.957Z,-3.51
2018-02-14T07:32:57.517Z,-3.32
2018-02-14T07:35:25.071Z,-3.28
2018-02-14T07:37:52.657Z,-3.23
2018-02-14T07:40:20.181Z,-3.21
2018-02-14T07:42:47.738Z,-3.12
2018-02-14T07:45:15.251Z,-3.05
2018-02-14T07:47:42.806Z,-3.01
2018-02-14T07:50:10.341Z,-2.97
2018-02-14T07:52:37.909Z,-2.90
2018-02-14T07:55:05.471Z,-2.80
2018-02-14T07:57:33.075Z,-2.82
2018-02-14T08:00:00.602Z,-2.69
2018-02-14T08:02:28.143Z,-2.70
2018-02-14T08:04:55.710Z,-2.67
2018-02-14T08:07:23.257Z,-2.66
2018-02-14T08:09:50.830Z,-2.58
2018-02-14T08:12:18.355Z,-2.51
2018-02-14T08:14:45.926Z,-2.45
2018-02-14T08:17:13.461Z,-2.37
2018-02-14T08:19:41.021Z,-2.32
2018-02-14T08:22:08.546Z,-2.25
2018-02-14T08:24:36.101Z,-2.12
2018-02-14T08:27:03.614Z,-2.11
2018-02-14T08:29:31.165Z,-2.04
2018-02-14T08:31:58.707Z,-1.94
2018-02-14T08:34:26.247Z,-1.89
2018-02-14T08:36:53.786Z,-1.80
2018-02-14T08:39:21.334Z,-1.74
2018-02-14T08:41:48.898Z,-1.69
2018-02-14T08:44:16.424Z,-1.68
2018-02-14T08:46:43.967Z,-1.60
2018-02-14T08:49:11.507Z,-1.47
2018-02-14T08:51:39.032Z,-1.37
2018-02-14T08:54:06.574Z,-1.38
2018-02-14T08:56:34.136Z,-1.28
2018-02-14T08:59:01.683Z,-1.14
2018-02-14T09:01:29.194Z,-1.09
2018-02-14T09:03:56.769Z,-1.09
2018-02-14T09:06:24.308Z,-0.98
2018-02-14T09:08:51.841Z,-0.87
2018-02-14T09:11:19.429Z,-0.79
2018-02-14T09:13:46.970Z,-0.70
2018-02-14T09:16:14.520Z,-0.63
2018-02-14T09:18:42.474Z,-0.47
2018-02-14T09:21:10.012Z,-0.37
2018-02-14T09:23:37.543Z,-0.35
2018-02-14T09:26:05.135Z,-0.20
2018-02-14T09:28:32.682Z,-0.22
2018-02-14T09:31:00.235Z,-0.13
2018-02-14T09:33:27.783Z,-0.04
2018-02-14T09:35:55.313Z,0.03
2018-02-14T09:38:22.849Z,0.17
2018-02-14T09:40:50.368Z,0.24
2018-02-14T09:43:17.936Z,0.31
2018-02-14T09:45:45.464Z,0.47
2018-02-14T09:48:12.995Z,0.39
2018-02-14T09:50:40.564Z,0.43
2018-02-14T09:53:08.147Z,0.49
2018-02-14T09:55:35.676Z,0.53
2018-02-14T09:58:03.200Z,0.66
2018-02-14T10:00:30.743Z,0.66
2018-02-14T10:02:58.302Z,0.73
2018-02-14T10:05:25.874Z,0.82
2018-02-14T10:07:53.397Z,0.84
2018-02-14T10:10:20.943Z,0.91
2018-02-14T10:12:48.496Z,1.02
2018-02-14T10:15:16.030Z,0.96
2018-02-14T10:17:43.604Z,1.09
2018-02-14T10:20:11.123Z,1.22
2018-02-14T10:22:38.704Z,1.22
2018-02-14T10:25:06.215Z,1.22
2018-02-14T10:27:33.736Z,1.30
2018-02-14T10:30:02.319Z,1.46
2018-02-14T10:32:29.856Z,1.41
2018-02-14T10:34:57.389Z,1.59
2018-02-14T10:37:24.932Z,1.57
2018-02-14T10:39:52.561Z,1.59
2018-02-14T10:42:20.097Z,1.64
2018-02-14T10:44:47.672Z,1.86
2018-02-14T10:47:15.182Z,2.05
2018-02-14T10:49:42.729Z,2.03
2018-02-14T10:52:10.286Z,1.99
2018-02-14T10:54:37.814Z,2.01
2018-02-14T10:57:05.352Z,2.09
2018-02-14T10:59:32.875Z,2.07
2018-02-14T11:02:06.068Z,2.20
2018-02-14T11:04:34.955Z,2.29
2018-02-14T11:07:08.212Z,2.35
2018-02-14T11:09:35.738Z,2.41
2018-02-14T11:12:03.265Z,2.54
2018-02-14T11:14:30.807Z,2.49
2018-02-14T11:16:58.325Z,2.55
2018-02-14T11:19:25.877Z,2.69
2018-02-14T11:21:53.406Z,2.72
2018-02-14T11:24:20.968Z,2.71
2018-02-14T11:26:48.508Z,2.80
2018-02-14T11:29:16.042Z,2.69
2018-02-14T11:31:43.589Z,2.72
2018-02-14T11:34:11.527Z,2.66
2018-02-14T11:36:39.063Z,2.76
2018-02-14T11:39:06.611Z,2.95
2018-02-14T11:41:34.135Z,2.87
2018-02-14T11:44:01.687Z,3.04
2018-02-14T11:46:29.229Z,3.00
2018-02-14T11:48:56.771Z,3.02
2018-02-14T11:51:24.343Z,3.02
2018-02-14T11:53:51.853Z,2.93
2018-02-14T11:56:19.372Z,2.98
2018-02-14T11:58:47.309Z,3.13
2018-02-14T12:01:14.838Z,3.03
2018-02-14T12:03:42.414Z,2.94
2018-02-14T12:06:09.987Z,3.08
2018-02-14T12:08:37.526Z,3.16
2018-02-14T12:11:05.052Z,3.39
2018-02-14T12:13:32.590Z,3.15
2018-02-14T12:16:00.095Z,3.31
2018-02-14T12:18:27.686Z,3.29
2018-02-14T12:20:55.203Z,3.30
2018-02-14T12:23:22.787Z,3.38
2018-02-14T12:25:50.304Z,3.41
2018-02-14T12:28:17.828Z,3.30
2018-02-14T12:30:45.433Z,3.35
2018-02-14T12:33:12.970Z,3.40
2018-02-14T12:35:40.482Z,3.33
2018-02-14T12:38:08.071Z,3.43
2018-02-14T12:40:35.596Z,3.52
2018-02-14T12:43:03.120Z,3.69
2018-02-14T12:45:31.119Z,3.82
2018-02-14T12:47:58.660Z,3.57
2018-02-14T12:50:26.239Z,3.56
2018-02-14T12:52:53.780Z,3.74
2018-02-14T12:55:21.347Z,3.60
2018-02-14T12:57:48.867Z,3.65
2018-02-14T13:00:16.409Z,3.68
2018-02-14T13:02:43.933Z,3.66
2018-02-14T13:05:11.491Z,3.78
2018-02-14T13:07:39.022Z,3.87
2018-02-14T13:10:06.568Z,3.84
2018-02-14T13:12:34.281Z,4.01
2018-02-14T13:15:01.847Z,3.98
2018-02-14T13:17:29.379Z,3.97
2018-02-14T13:19:56.907Z,3.95
2018-02-14T13:22:24.462Z,3.89
2018-02-14T13:24:51.987Z,3.95
2018-02-14T13:27:19.626Z,3.79
2018-02-14T13:29:47.156Z,3.87
2018-02-14T13:32:14.697Z,3.95
2018-02-14T13:34:42.230Z,3.98
2018-02-14T13:37:09.799Z,4.00
2018-02-14T13:39:37.307Z,4.05
2018-02-14T13:42:04.839Z,3.94
2018-02-14T13:44:32.375Z,4.04
2018-02-14T13:46:59.932Z,4.09
2018-02-14T13:49:28.378Z,4.23
2018-02-14T13:51:55.934Z,4.11
2018-02-14T13:54:23.460Z,4.06
2018-02-14T13:56:50.985Z,4.12
2018-02-14T13:59:18.541Z,4.03
2018-02-14T14:01:46.126Z,4.06
2018-02-14T14:04:13.671Z,4.17
2018-02-14T14:06:44.216Z,4.11
2018-02-14T14:09:11.774Z,4.17
2018-02-14T14:11:39.279Z,4.17
2018-02-14T14:14:06.853Z,4.21
2018-02-14T14:16:34.373Z,4.33
2018-02-14T14:19:01.908Z,4.35
2018-02-14T14:21:29.420Z,4.38
2018-02-14T14:23:57.287Z,4.39
2018-02-14T14:26:24.802Z,4.39
2018-02-14T14:28:52.321Z,4.41
2018-02-14T14:31:19.899Z,4.49
2018-02-14T14:33:47.420Z,4.59
2018-02-14T14:36:14.940Z,4.53
2018-02-14T14:38:42.509Z,4.51
2018-02-14T14:41:10.050Z,4.61
2018-02-14T14:43:37.564Z,4.60
2018-02-14T14:46:05.452Z,4.57
2018-02-14T14:48:32.995Z,4.63
2018-02-14T14:51:00.546Z,4.61
2018-02-14T14:53:28.111Z,4.60
2018-02-14T14:55:55.655Z,4.52
2018-02-14T14:58:23.222Z,4.48
2018-02-14T15:00:50.764Z,4.45
2018-02-14T15:03:18.271Z,4.53
2018-02-14T15:05:45.814Z,4.51
2018-02-14T15:08:13.328Z,4.48
2018-02-14T15:10:40.905Z,4.44
2018-02-14T15:13:08.460Z,4.38
2018-02-14T15:15:35.976Z,4.35
2018-02-14T15:18:03.560Z,4.33
2018-02-14T15:20:31.095Z,4.29
2018-02-14T15:22:58.622Z,4.21
2018-02-14T15:25:26.165Z,4.20
2018-02-14T15:27:53.690Z,4.16
2018-02-14T15:30:21.688Z,4.12
2018-02-14T15:32:49.217Z,4.15
2018-02-14T15:35:16.783Z,4.10
2018-02-14T15:37:44.369Z,4.08
2018-02-14T15:40:11.940Z,3.96
2018-02-14T15:42:39.440Z,3.93
2018-02-14T15:45:07.004Z,3.91
2018-02-14T15:47:34.528Z,3.84
2018-02-14T15:50:02.068Z,3.82
2018-02-14T15:52:29.607Z,3.74
2018-02-14T15:54:57.502Z,3.63
2018-02-14T15:57:25.030Z,3.67
2018-02-14T15:59:52.556Z,3.49
2018-02-14T16:02:20.088Z,3.32
2018-02-14T16:04:47.638Z,3.17
2018-02-14T16:07:15.174Z,3.27
2018-02-14T16:09:42.675Z,3.30
2018-02-14T16:12:10.206Z,3.13
2018-02-14T16:14:37.815Z,3.07
2018-02-14T16:17:05.385Z,3.00
2018-02-14T16:19:32.927Z,2.97
2018-02-14T16:22:00.463Z,2.86
2018-02-14T16:24:28.004Z,2.74
2018-02-14T16:26:55.587Z,2.60
2018-02-14T16:29:23.111Z,2.45
2018-02-14T16:31:50.701Z,2.41
2018-02-14T16:34:18.241Z,2.25
2018-02-14T16:36:45.768Z,2.34
2018-02-14T16:39:13.339Z,2.37
2018-02-14T16:41:40.900Z,2.19
2018-02-14T16:44:08.411Z,2.23
2018-02-14T16:46:35.959Z,2.20
2018-02-14T16:49:03.500Z,2.12
2018-02-14T16:51:31.071Z,2.09
2018-02-14T16:53:58.632Z,1.86
2018-02-14T16:56:26.147Z,1.77
2018-02-14T16:58:53.698Z,1.73
2018-02-14T17:01:21.231Z,1.94
2018-02-14T17:03:48.826Z,1.81
2018-02-14T17:06:16.358Z,1.76
2018-02-14T17:08:43.894Z,1.78
2018-02-14T17:11:11.440Z,1.73
2018-02-14T17:13:38.957Z,1.76
2018-02-14T17:16:06.524Z,1.68
2018-02-14T17:18:34.048Z,1.69
2018-02-14T17:21:01.625Z,1.59
2018-02-14T17:23:29.167Z,1.62
2018-02-14T17:25:56.693Z,1.75
2018-02-14T17:28:24.231Z,1.77
2018-02-14T17:30:51.763Z,1.82
2018-02-14T17:33:19.323Z,1.74
2018-02-14T17:35:46.865Z,1.88
2018-02-14T17:38:14.428Z,1.93
2018-02-14T17:40:41.965Z,1.82
2018-02-14T17:43:09.483Z,1.92
2018-02-14T17:45:37.025Z,1.87
2018-02-14T17:48:04.581Z,1.73
2018-02-14T17:50:32.138Z,1.57
2018-02-14T17:52:59.743Z,1.60
2018-02-14T17:55:27.273Z,1.77
2018-02-14T17:57:54.855Z,1.73
2018-02-14T18:00:22.380Z,1.77
2018-02-14T18:02:49.939Z,1.75
2018-02-14T18:05:17.525Z,1.70
2018-02-14T18:07:45.062Z,1.66
2018-02-14T18:10:12.576Z,1.66
2018-02-14T18:12:40.177Z,1.57
2018-02-14T18:15:07.755Z,1.56
2018-02-14T18:17:35.291Z,1.49
2018-02-14T18:20:02.841Z,1.51
2018-02-14T18:22:30.428Z,1.42
2018-02-14T18:24:58.030Z,1.43
2018-02-14T18:27:25.587Z,1.46
2018-02-14T18:29:53.127Z,1.41
2018-02-14T18:32:20.682Z,1.45
2018-02-14T18:34:48.194Z,1.40
2018-02-14T18:37:15.766Z,1.43
2018-02-14T18:39:43.275Z,1.53
2018-02-14T18:42:10.826Z,1.50
2018-02-14T18:44:38.392Z,1.59
2018-02-14T18:47:06.082Z,1.57
2018-02-14T18:49:33.667Z,1.48
2018-02-14T18:52:01.232Z,1.56
2018-02-14T18:54:28.770Z,1.49
2018-02-14T18:56:56.377Z,1.48
2018-02-14T18:59:23.975Z,1.49
2018-02-14T19:01:51.510Z,1.43
2018-02-14T19:04:19.071Z,1.43
2018-02-14T19:06:46.602Z,1.32
2018-02-14T19:09:14.534Z,1.47
2018-02-14T19:11:42.118Z,1.45
2018-02-14T19:14:09.677Z,1.38
2018-02-14T19:16:37.271Z,1.39
2018-02-14T19:19:04.829Z,1.43
2018-02-14T19:21:32.373Z,1.45
2018-02-14T19:23:59.889Z,1.40
2018-02-14T19:26:27.447Z,1.42
2018-02-14T19:28:54.974Z,1.40
2018-02-14T19:31:22.551Z,1.41
2018-02-14T19:33:50.062Z,1.27
2018-02-14T19:36:18.025Z,1.33
2018-02-14T19:38:45.547Z,1.47
2018-02-14T19:41:13.117Z,1.40
2018-02-14T19:43:40.661Z,1.48
2018-02-14T19:46:08.209Z,1.45
2018-02-14T19:48:35.796Z,1.49
2018-02-14T19:51:03.694Z,1.51
2018-02-14T19:53:31.219Z,1.53
2018-02-14T19:55:58.806Z,1.53
2018-02-14T19:58:26.356Z,1.56
2018-02-14T20:00:53.913Z,1.52
2018-02-14T20:03:21.475Z,1.53
2018-02-14T20:05:49.014Z,1.43
2018-02-14T20:08:16.600Z,1.40
2018-02-14T20:10:44.116Z,1.38
2018-02-14T20:13:11.674Z,1.43
2018-02-14T20:15:39.202Z,1.43
2018-02-14T20:18:06.740Z,1.43
2018-02-14T20:20:34.289Z,1.42
2018-02-14T20:23:01.914Z,1.43
2018-02-14T20:25:29.604Z,1.46
2018-02-14T20:27:57.257Z,1.38
2018-02-14T20:30:24.803Z,1.38
2018-02-14T20:32:52.326Z,1.40
2018-02-14T20:35:20.529Z,1.41
2018-02-14T20:37:48.089Z,1.26
2018-02-14T20:40:15.641Z,1.27
2018-02-14T20:42:43.218Z,1.30
2018-02-14T20:45:10.765Z,1.26
2018-02-14T20:47:38.300Z,1.31
2018-02-14T20:50:05.857Z,1.34
2018-02-14T20:52:33.377Z,1.37
2018-02-14T20:55:01.306Z,1.37
2018-02-14T20:57:28.836Z,1.35
2018-02-14T20:59:56.419Z,1.34
2018-02-14T21:02:24.012Z,1.40
2018-02-14T21:04:51.541Z,1.30
2018-02-14T21:07:19.068Z,1.33
2018-02-14T21:09:46.765Z,1.31
2018-02-14T21:12:14.334Z,1.30
2018-02-14T21:14:41.878Z,1.32
2018-02-14T21:17:09.467Z,1.36
2018-02-14T21:19:36.995Z,1.34
2018-02-14T21:22:04.618Z,1.27
2018-02-14T21:24:32.386Z,1.31
2018-02-14T21:27:00.096Z,1.33
2018-02-14T21:29:27.620Z,1.37
2018-02-14T21:31:55.176Z,1.34
2018-02-14T21:34:22.715Z,1.36
2018-02-14T21:36:50.258Z,1.32
2018-02-14T21:39:17.845Z,1.32
2018-02-14T21:41:45.401Z,1.32
2018-02-14T21:44:13.876Z,1.32
2018-02-14T21:46:41.425Z,1.31
2018-02-14T21:49:08.964Z,1.28
2018-02-14T21:51:36.523Z,1.30
2018-02-14T21:54:04.046Z,1.26
2018-02-14T21:56:31.569Z,1.26
2018-02-14T21:58:59.132Z,1.36
2018-02-14T22:01:26.643Z,1.31
2018-02-14T22:03:54.271Z,1.31
2018-02-14T22:06:21.836Z,1.31
2018-02-14T22:08:49.369Z,1.32
2018-02-14T22:11:16.892Z,1.32
2018-02-14T22:13:44.437Z,1.32
2018-02-14T22:16:12.009Z,1.32
2018-02-14T22:18:39.533Z,1.32
2018-02-14T22:21:07.186Z,1.32
2018-02-14T22:23:34.758Z,1.31
2018-02-14T22:26:02.307Z,1.36
2018-02-14T22:28:29.887Z,1.27
2018-02-14T22:30:57.421Z,1.31
2018-02-14T22:33:24.941Z,1.34
2018-02-14T22:35:52.478Z,1.25
2018-02-14T22:38:20.014Z,1.24
2018-02-14T22:40:47.592Z,1.25
2018-02-14T22:43:15.159Z,1.25
2018-02-14T22:45:42.671Z,1.35
2018-02-14T22:48:10.240Z,1.25
2018-02-14T22:50:37.786Z,1.29
2018-02-14T22:53:05.364Z,1.23
2018-02-14T22:55:32.943Z,1.23
2018-02-14T22:58:00.470Z,1.23
2018-02-14T23:00:28.942Z,1.26
2018-02-14T23:02:56.453Z,1.23
2018-02-14T23:05:23.986Z,1.20
2018-02-14T23:07:51.608Z,1.23
2018-02-14T23:10:19.179Z,1.24
2018-02-14T23:12:46.742Z,1.25
2018-02-14T23:15:14.289Z,1.26
2018-02-14T23:17:42.079Z,1.31
2018-02-14T23:20:09.694Z,1.24
2018-02-14T23:22:37.231Z,1.28
2018-02-14T23:25:04.765Z,1.29
2018-02-14T23:27:32.337Z,1.31
2018-02-14T23:29:59.920Z,1.28
2018-02-14T23:32:27.447Z,1.28
2018-02-14T23:34:55.026Z,1.33
2018-02-14T23:37:22.568Z,1.28
2018-02-14T23:39:50.113Z,1.35
2018-02-14T23:42:17.648Z,1.34
2018-02-14T23:44:45.176Z,1.29
2018-02-14T23:47:12.718Z,1.26
2018-02-14T23:49:40.240Z,1.33
2018-02-14T23:52:07.824Z,1.32
2018-02-14T23:54:35.337Z,1.30
2018-02-14T23:57:02.876Z,1.32
2018-02-14T23:59:30.483Z,1.33
